TimeCDT,TemperatureF,Dew PointF,Humidity,Sea Level PressureIn,VisibilityMPH,Wind Direction,Wind SpeedMPH,Gust SpeedMPH,PrecipitationIn,Events,Conditions,WindDirDegrees,DateUTC
12:30 AM,42.8,39.2,87,29.77,10.0,West,4.6,-,N/A,,Overcast,280,2012-10-20 05:30:00
12:53 AM,42.1,39.0,89,29.80,10.0,WNW,3.5,-,N/A,,Overcast,290,2012-10-20 05:53:00
1:53 AM,42.1,39.9,92,29.80,10.0,WNW,5.8,-,N/A,,Overcast,290,2012-10-20 06:53:00
2:18 AM,42.8,39.2,87,29.77,10.0,WNW,4.6,-,N/A,,Overcast,300,2012-10-20 07:18:00
2:53 AM,42.1,39.9,92,29.79,10.0,WSW,3.5,-,N/A,,Overcast,250,2012-10-20 07:53:00
3:53 AM,42.1,39.9,92,29.80,10.0,West,3.5,-,N/A,,Overcast,270,2012-10-20 08:53:00
4:53 AM,43.0,39.9,89,29.80,10.0,Calm,Calm,-,N/A,,Overcast,0,2012-10-20 09:53:00
5:05 AM,42.8,39.2,87,29.79,10.0,Calm,Calm,-,N/A,,Overcast,0,2012-10-20 10:05:00
5:46 AM,42.8,39.2,87,29.80,10.0,West,4.6,-,N/A,,Overcast,260,2012-10-20 10:46:00
5:53 AM,43.0,39.9,89,29.82,10.0,Calm,Calm,-,N/A,,Overcast,0,2012-10-20 10:53:00
6:53 AM,43.0,39.9,89,29.82,10.0,Calm,Calm,-,N/A,,Overcast,0,2012-10-20 11:53:00
7:53 AM,42.1,39.9,92,29.83,10.0,SW,4.6,-,N/A,,Overcast,220,2012-10-20 12:53:00
8:05 AM,42.8,39.2,87,29.81,7.0,SW,6.9,-,N/A,,Mostly Cloudy,220,2012-10-20 13:05:00
8:08 AM,42.8,39.2,87,29.81,0.8,SW,8.1,-,N/A,,Mostly Cloudy,220,2012-10-20 13:08:00
8:16 AM,39.2,39.2,100,29.81,0.2,SW,9.2,-,N/A,Fog,Fog,230,2012-10-20 13:16:00
8:26 AM,39.2,39.2,100,29.81,0.2,SW,6.9,-,N/A,Fog,Fog,230,2012-10-20 13:26:00
8:34 AM,39.2,39.2,100,29.81,0.2,SW,8.1,-,N/A,Fog,Fog,230,2012-10-20 13:34:00
8:53 AM,39.9,39.0,97,29.84,0.2,SW,6.9,-,N/A,Fog,Fog,220,2012-10-20 13:53:00
9:41 AM,41.0,39.2,93,29.82,0.5,SSW,5.8,-,N/A,Fog,Fog,210,2012-10-20 14:41:00
9:53 AM,41.0,39.9,96,29.85,0.8,SSW,5.8,-,N/A,,Mist,200,2012-10-20 14:53:00
10:03 AM,41.0,39.2,93,29.82,2.0,SW,8.1,-,N/A,,Overcast,220,2012-10-20 15:03:00
10:11 AM,41.0,39.2,93,29.82,7.0,SSW,5.8,-,N/A,,Overcast,210,2012-10-20 15:11:00
10:53 AM,43.0,39.9,89,29.86,10.0,SSW,8.1,-,N/A,,Overcast,200,2012-10-20 15:53:00
11:53 AM,45.0,41.0,86,29.84,10.0,South,5.8,-,N/A,,Overcast,190,2012-10-20 16:53:00
12:23 PM,48.2,42.8,82,29.81,10.0,South,5.8,-,N/A,,Scattered Clouds,170,2012-10-20 17:23:00
12:53 PM,50.0,43.0,77,29.81,10.0,SSE,8.1,-,N/A,,Partly Cloudy,160,2012-10-20 17:53:00
1:53 PM,53.1,44.1,71,29.79,10.0,South,10.4,-,N/A,,Partly Cloudy,180,2012-10-20 18:53:00
2:53 PM,55.9,44.1,64,29.76,10.0,SSE,15.0,-,N/A,,Clear,150,2012-10-20 19:53:00
3:53 PM,57.9,44.1,60,29.74,10.0,South,12.7,-,N/A,,Clear,170,2012-10-20 20:53:00
4:53 PM,57.9,44.1,60,29.74,10.0,SSE,15.0,-,N/A,,Clear,160,2012-10-20 21:53:00
5:53 PM,55.9,44.1,64,29.76,10.0,SSE,10.4,-,N/A,,Clear,150,2012-10-20 22:53:00
6:53 PM,50.0,43.0,77,29.77,10.0,SE,8.1,-,N/A,,Clear,130,2012-10-20 23:53:00
7:53 PM,50.0,43.0,77,29.78,10.0,SE,9.2,-,N/A,,Clear,130,2012-10-21 00:53:00
8:53 PM,48.9,44.1,83,29.78,10.0,SE,10.4,-,N/A,,Clear,140,2012-10-21 01:53:00
9:53 PM,46.9,43.0,86,29.80,10.0,SE,11.5,-,N/A,,Clear,130,2012-10-21 02:53:00
10:53 PM,45.0,42.1,90,29.80,10.0,SE,9.2,-,N/A,,Clear,140,2012-10-21 03:53:00
11:53 PM,46.0,42.1,86,29.79,10.0,SE,12.7,-,N/A,,Clear,140,2012-10-21 04:53:00